Nearby METAR Reports


EGGW - Luton Airport, United Kingdom
Distance from station: ESE 6mi, 9km
Updated: Tue, 23-Jan-2018 7:50pm GMT
Clear
Clear
 Wind from WSW
Wind: WSW 20 mph , 31 km/h
Temperature: 10°C
Wind Chill: 7°C
Dew Point: 8°C
Humidity: 88%
Barometer: 1013 hPa
Clouds: Clear
Visibility: 6 miles , 10 km
2018/01/23 19:50 EGGW 231950Z AUTO 24017KT 9999 NCD 10/08 Q1013
EGTC - Cranfield, United Kingdom
Distance from station: NNW 13mi, 22km
Updated: Tue, 23-Jan-2018 5:50pm GMT
NOT Current
Rain, Mostly cloudy
Rain, Mostly cloudy
 Wind from WSW
Wind: WSW 17 mph , 28 km/h
Temperature: 12°C
Dew Point: 11°C
Humidity: 94%
Barometer: 1011 hPa
Summary: Rain
Clouds: Mostly Cloudy
Visibility: 5 miles , 8 km
Cloud details: Mostly Cloudy 305 m
2018/01/23 17:50 EGTC 231750Z 24015KT 8000 RA BKN010 12/11 Q1011

Metar display script from Saratoga-Weather.org

Powered by Cumulus v1.9.4 (1098)